Time;durP1;ratioP1;P1;durP2;ratioP2;P2;SDS_P1;SDS_P2;PMS_P1;PMS_P2;Temp;Humidity;BMP_temperature;BMP_pressure;BME280_temperature;BME280_humidity;BME280_pressure;Samples;Min_cycle;Max_cycle;Signal;HPM_P1;HPM_P2
2023/12/20 00:00:22;;;;;;;12.75;6.53;;;;;;;;;;10515904;22;20362;-95
2023/12/20 00:04:41;;;;;;;11.90;6.28;;;;;;;;;;10556955;22;20019;-96
2023/12/20 00:13:13;;;;;;;13.43;6.38;;;;;;;;;;10562186;22;20038;-95
2023/12/20 00:22:15;;;;;;;12.73;6.38;;;;;;;;;;10574883;22;20388;-95
2023/12/20 00:26:20;;;;;;;15.85;7.85;;;;;;;;;;10529649;22;20026;-96
2023/12/20 00:39:24;;;;;;;14.68;6.93;;;;;;;;;;10560792;22;20030;-93
2023/12/20 00:43:28;;;;;;;11.13;6.67;;;;;;;;;;10580456;22;20018;-94
2023/12/20 00:47:50;;;;;;;11.98;5.90;;;;;;;;;;10558730;22;20014;-95
2023/12/20 00:52:00;;;;;;;10.70;6.20;;;;;;;;;;10529745;22;20071;-91
2023/12/20 00:56:04;;;;;;;11.80;6.50;;;;;;;;;;10549128;22;20041;-91
2023/12/20 01:00:35;;;;;;;12.95;6.30;;;;;;;;;;10578265;22;20021;-94
2023/12/20 01:04:37;;;;;;;12.57;6.50;;;;;;;;;;10562951;22;20101;-89
2023/12/20 01:08:40;;;;;;;9.38;4.82;;;;;;;;;;10571391;22;20064;-94
2023/12/20 01:12:51;;;;;;;13.77;6.65;;;;;;;;;;10567668;22;20438;-94
2023/12/20 01:17:06;;;;;;;15.68;6.60;;;;;;;;;;10586259;22;20069;-92
2023/12/20 01:21:19;;;;;;;12.45;6.78;;;;;;;;;;10540250;22;20019;-96
2023/12/20 01:25:24;;;;;;;10.90;6.53;;;;;;;;;;10563893;22;20023;-96
2023/12/20 01:29:30;;;;;;;13.73;7.07;;;;;;;;;;10562986;22;20042;-96
2023/12/20 01:33:47;;;;;;;12.07;7.25;;;;;;;;;;10575896;22;20068;-95
2023/12/20 01:37:50;;;;;;;16.75;7.82;;;;;;;;;;10564087;22;20038;-93
2023/12/20 01:42:24;;;;;;;15.25;8.93;;;;;;;;;;10514214;22;20049;-93
2023/12/20 01:51:07;;;;;;;14.55;7.93;;;;;;;;;;10576458;22;20018;-94
2023/12/20 01:55:15;;;;;;;16.00;8.18;;;;;;;;;;10577109;22;20041;-95
2023/12/20 01:59:28;;;;;;;13.95;7.80;;;;;;;;;;10579419;22;20049;-93
2023/12/20 02:03:42;;;;;;;13.30;7.40;;;;;;;;;;10558790;22;20469;-94
2023/12/20 02:08:19;;;;;;;14.00;7.57;;;;;;;;;;10581001;22;20014;-92
2023/12/20 02:12:24;;;;;;;18.27;9.02;;;;;;;;;;10560673;22;20025;-94
2023/12/20 02:16:30;;;;;;;12.98;8.45;;;;;;;;;;10570776;22;20021;-94
2023/12/20 02:20:51;;;;;;;14.30;8.00;;;;;;;;;;10596010;22;20503;-91
2023/12/20 02:25:15;;;;;;;15.17;8.40;;;;;;;;;;10526474;22;20014;-92
2023/12/20 02:30:17;;;;;;;16.77;8.73;;;;;;;;;;10506539;22;20026;-93
2023/12/20 02:34:26;;;;;;;18.55;8.95;;;;;;;;;;10588251;22;20018;-93
2023/12/20 02:38:37;;;;;;;17.08;9.20;;;;;;;;;;10589711;22;20018;-95
2023/12/20 02:42:45;;;;;;;15.18;7.70;;;;;;;;;;10543589;22;20025;-96
2023/12/20 02:47:03;;;;;;;13.70;8.40;;;;;;;;;;10588974;22;20018;-90
2023/12/20 02:51:12;;;;;;;13.02;7.15;;;;;;;;;;10572402;22;20101;-93
2023/12/20 02:59:49;;;;;;;16.85;8.80;;;;;;;;;;10565212;22;20019;-96
2023/12/20 03:08:34;;;;;;;14.30;8.68;;;;;;;;;;10581641;22;20022;-96
2023/12/20 03:12:58;;;;;;;14.25;8.52;;;;;;;;;;10567220;22;20067;-93
2023/12/20 03:17:05;;;;;;;16.38;8.40;;;;;;;;;;10589189;22;20018;-96
2023/12/20 03:21:09;;;;;;;11.82;6.10;;;;;;;;;;10488975;22;20018;-96
2023/12/20 03:25:18;;;;;;;13.80;7.68;;;;;;;;;;10580108;22;20032;-95
2023/12/20 03:29:32;;;;;;;15.15;8.02;;;;;;;;;;10579536;22;20030;-94
2023/12/20 03:33:38;;;;;;;12.10;6.82;;;;;;;;;;10592270;22;20022;-94
2023/12/20 03:37:52;;;;;;;13.70;7.75;;;;;;;;;;10540591;22;20034;-94
2023/12/20 03:41:59;;;;;;;15.25;8.02;;;;;;;;;;10579334;22;20021;-90
2023/12/20 03:46:17;;;;;;;15.27;8.52;;;;;;;;;;10557328;22;20025;-93
2023/12/20 03:50:22;;;;;;;13.63;8.23;;;;;;;;;;10567575;22;20020;-95
2023/12/20 03:54:25;;;;;;;14.75;8.70;;;;;;;;;;10538840;22;20018;-96
2023/12/20 03:58:32;;;;;;;16.05;8.40;;;;;;;;;;10516241;22;20079;-93
2023/12/20 04:07:36;;;;;;;19.05;9.35;;;;;;;;;;10562487;22;20060;-94
2023/12/20 04:11:42;;;;;;;39.88;17.65;;;;;;;;;;10553246;22;20030;-89
2023/12/20 04:15:50;;;;;;;18.85;11.15;;;;;;;;;;10538728;22;20023;-93
2023/12/20 04:20:03;;;;;;;24.48;13.93;;;;;;;;;;10579695;22;20034;-95
2023/12/20 04:24:23;;;;;;;14.77;9.07;;;;;;;;;;10582260;22;20061;-92
2023/12/20 04:28:31;;;;;;;16.27;9.63;;;;;;;;;;10536516;22;20018;-95
2023/12/20 04:32:48;;;;;;;16.55;9.73;;;;;;;;;;10569533;22;20019;-95
2023/12/20 04:36:52;;;;;;;28.10;17.35;;;;;;;;;;10588208;22;20018;-94
2023/12/20 04:46:09;;;;;;;15.25;8.75;;;;;;;;;;10567773;22;20087;-95
2023/12/20 04:50:33;;;;;;;12.60;7.78;;;;;;;;;;10589295;22;20034;-96
2023/12/20 04:54:55;;;;;;;15.50;9.50;;;;;;;;;;10546515;22;20034;-94
2023/12/20 04:59:29;;;;;;;13.13;7.60;;;;;;;;;;10361063;23;20079;-95
2023/12/20 05:03:50;;;;;;;13.60;7.45;;;;;;;;;;10358165;23;20456;-90
2023/12/20 05:13:00;;;;;;;13.93;7.88;;;;;;;;;;10349149;23;20055;-94
2023/12/20 05:17:21;;;;;;;14.03;7.03;;;;;;;;;;10358859;23;20051;-92
2023/12/20 05:21:46;;;;;;;14.52;8.45;;;;;;;;;;10377747;22;20019;-93
2023/12/20 05:26:22;;;;;;;37.80;19.63;;;;;;;;;;10561066;22;20071;-94
2023/12/20 05:30:26;;;;;;;16.13;9.35;;;;;;;;;;10588791;22;20026;-92
2023/12/20 05:35:17;;;;;;;22.45;14.18;;;;;;;;;;10573090;22;20067;-92
2023/12/20 05:39:24;;;;;;;19.15;12.40;;;;;;;;;;10544556;22;20014;-95
2023/12/20 05:48:16;;;;;;;17.38;7.88;;;;;;;;;;10574989;22;20022;-93
2023/12/20 05:52:41;;;;;;;15.27;9.18;;;;;;;;;;10571245;22;20376;-94
2023/12/20 05:56:51;;;;;;;17.15;9.32;;;;;;;;;;10589320;22;20014;-93
2023/12/20 06:01:18;;;;;;;14.75;9.20;;;;;;;;;;10489085;22;20075;-91
2023/12/20 06:05:21;;;;;;;14.38;8.52;;;;;;;;;;10535166;22;20018;-87
2023/12/20 06:09:51;;;;;;;12.52;7.18;;;;;;;;;;10499700;22;20019;-92
2023/12/20 06:18:17;;;;;;;14.18;8.50;;;;;;;;;;10468656;22;20016;-96
2023/12/20 06:27:29;;;;;;;26.08;14.73;;;;;;;;;;10485683;22;20022;-93
2023/12/20 06:37:18;;;;;;;14.82;8.57;;;;;;;;;;10431338;22;20058;-90
2023/12/20 06:41:48;;;;;;;11.10;5.78;;;;;;;;;;10463829;22;20019;-90
2023/12/20 06:46:01;;;;;;;10.43;6.43;;;;;;;;;;10472280;22;20023;-94
2023/12/20 07:06:19;;;;;;;7.30;4.15;;;;;;;;;;10426515;22;20103;-93
2023/12/20 07:10:50;;;;;;;8.82;4.93;;;;;;;;;;10444330;22;20020;-94
2023/12/20 07:20:18;;;;;;;13.60;6.68;;;;;;;;;;10406396;22;20038;-92
2023/12/20 07:25:00;;;;;;;14.60;7.43;;;;;;;;;;10399243;22;20016;-91
2023/12/20 07:29:08;;;;;;;11.13;5.75;;;;;;;;;;10418297;22;20019;-87
2023/12/20 08:02:10;;;;;;;14.50;5.72;;;;;;;;;;10596338;22;20022;-90
2023/12/20 08:32:37;;;;;;;21.02;10.38;;;;;;;;;;10455289;22;20024;-89
2023/12/20 08:36:53;;;;;;;7.43;4.10;;;;;;;;;;10477254;22;20096;-89
2023/12/20 08:41:21;;;;;;;9.50;5.40;;;;;;;;;;10452482;22;20371;-87
2023/12/20 08:59:56;;;;;;;4.72;2.78;;;;;;;;;;10449648;22;20073;-88
2023/12/20 09:47:45;;;;;;;7.53;4.30;;;;;;;;;;10625795;22;20030;-89
2023/12/20 10:23:07;;;;;;;8.23;3.72;;;;;;;;;;10427001;22;20008;-94
2023/12/20 10:32:42;;;;;;;7.07;3.72;;;;;;;;;;10328813;23;20025;-93
2023/12/20 10:42:22;;;;;;;14.18;7.25;;;;;;;;;;9899095;23;20013;-90
2023/12/20 10:52:24;;;;;;;8.77;4.47;;;;;;;;;;9846268;24;20029;-89
2023/12/20 11:06:25;;;;;;;13.68;8.93;;;;;;;;;;9941827;24;20028;-93
2023/12/20 11:11:03;;;;;;;6.78;3.38;;;;;;;;;;10045933;23;20025;-88
2023/12/20 11:15:17;;;;;;;5.68;3.20;;;;;;;;;;10213794;23;20027;-89
2023/12/20 11:19:24;;;;;;;17.30;6.47;;;;;;;;;;10324016;23;20074;-89
2023/12/20 11:23:33;;;;;;;10.43;4.07;;;;;;;;;;10330245;22;20061;-90
2023/12/20 11:27:47;;;;;;;10.57;4.32;;;;;;;;;;10513574;22;20034;-89
2023/12/20 11:37:42;;;;;;;10.15;5.15;;;;;;;;;;10632385;22;20450;-90
2023/12/20 11:47:02;;;;;;;15.32;8.07;;;;;;;;;;10653092;22;20013;-93
2023/12/20 12:02:00;;;;;;;12.18;6.07;;;;;;;;;;10222773;23;20021;-90
2023/12/20 12:06:39;;;;;;;24.45;10.85;;;;;;;;;;10196294;23;20005;-93
2023/12/20 12:11:03;;;;;;;16.38;6.93;;;;;;;;;;10223522;23;20056;-94
2023/12/20 12:15:24;;;;;;;17.73;8.48;;;;;;;;;;10194172;23;20018;-90
2023/12/20 12:19:53;;;;;;;18.58;10.30;;;;;;;;;;10167745;23;20037;-93
2023/12/20 12:28:53;;;;;;;10.38;4.63;;;;;;;;;;10003363;23;20027;-88
2023/12/20 12:33:33;;;;;;;14.43;6.88;;;;;;;;;;10066656;23;20030;-91
2023/12/20 12:37:47;;;;;;;9.73;5.20;;;;;;;;;;10064668;23;20083;-92
2023/12/20 12:47:59;;;;;;;9.80;5.80;;;;;;;;;;10163101;23;20048;-88
2023/12/20 13:16:39;;;;;;;14.48;7.13;;;;;;;;;;10270818;23;20028;-93
2023/12/20 13:41:24;;;;;;;9.90;4.72;;;;;;;;;;10100319;23;20032;-90
2023/12/20 13:50:50;;;;;;;7.93;3.58;;;;;;;;;;10037626;23;20028;-92
2023/12/20 14:00:03;;;;;;;11.27;4.72;;;;;;;;;;9940108;23;20087;-87
2023/12/20 14:04:07;;;;;;;13.43;7.35;;;;;;;;;;9912525;24;20048;-87
2023/12/20 14:37:38;;;;;;;12.20;6.43;;;;;;;;;;10639117;22;20350;-90
2023/12/20 14:42:24;;;;;;;12.85;6.13;;;;;;;;;;10627161;22;20020;-87
2023/12/20 14:48:27;;;;;;;16.70;8.40;;;;;;;;;;10639972;22;20534;-88
2023/12/20 14:58:37;;;;;;;13.00;6.50;;;;;;;;;;10180109;23;20065;-88
2023/12/20 15:12:54;;;;;;;93.15;32.47;;;;;;;;;;10642158;22;20029;-88
2023/12/20 15:16:59;;;;;;;37.13;16.67;;;;;;;;;;10655430;22;20045;-88
2023/12/20 15:31:40;;;;;;;26.45;13.68;;;;;;;;;;10298530;23;20044;-88
2023/12/20 15:36:03;;;;;;;14.20;8.75;;;;;;;;;;10281804;23;20044;-88
2023/12/20 15:50:44;;;;;;;35.33;17.88;;;;;;;;;;10264654;23;20028;-88
2023/12/20 16:17:14;;;;;;;38.00;14.02;;;;;;;;;;10528763;22;20068;-87
2023/12/20 16:22:26;;;;;;;25.58;11.82;;;;;;;;;;10644694;22;20021;-87
2023/12/20 16:37:39;;;;;;;31.23;16.03;;;;;;;;;;10616395;22;20077;-91
2023/12/20 17:18:53;;;;;;;22.83;10.68;;;;;;;;;;10475843;22;20164;-88
2023/12/20 17:28:52;;;;;;;10.32;5.53;;;;;;;;;;10478457;22;20019;-89
2023/12/20 17:37:54;;;;;;;21.83;7.65;;;;;;;;;;10426829;22;20030;-86
2023/12/20 17:48:31;;;;;;;82.53;25.42;;;;;;;;;;10426384;22;20003;-88
2023/12/20 18:56:31;;;;;;;18.10;6.93;;;;;;;;;;10500422;22;19914;-87
2023/12/20 19:45:41;;;;;;;10.57;5.95;;;;;;;;;;9921108;24;20039;-92
2023/12/20 19:50:05;;;;;;;15.10;6.72;;;;;;;;;;9924657;24;20434;-95
2023/12/20 19:54:13;;;;;;;9.60;5.53;;;;;;;;;;9827463;24;20021;-93
2023/12/20 19:58:41;;;;;;;;;;;;;;;;;;;;;
2023/12/20 20:03:04;;;;;;;11.07;6.32;;;;;;;;;;9793614;24;20029;-91
2023/12/20 20:07:14;;;;;;;10.90;5.15;;;;;;;;;;9813028;24;20029;-92
2023/12/20 20:11:19;;;;;;;15.35;6.97;;;;;;;;;;9873200;23;20593;-93
2023/12/20 20:15:27;;;;;;;8.07;5.00;;;;;;;;;;10082974;23;20053;-92
2023/12/20 20:19:34;;;;;;;12.98;5.75;;;;;;;;;;10122776;23;20026;-93
2023/12/20 20:28:37;;;;;;;10.48;4.68;;;;;;;;;;10137987;23;20052;-91
2023/12/20 20:58:07;;;;;;;11.07;5.55;;;;;;;;;;10583024;22;20014;-91
2023/12/20 21:02:28;;;;;;;6.32;3.35;;;;;;;;;;10571345;22;20022;-91
2023/12/20 21:06:33;;;;;;;7.18;3.80;;;;;;;;;;10584096;22;20049;-95
2023/12/20 21:10:37;;;;;;;5.70;3.00;;;;;;;;;;10538981;22;20075;-93
2023/12/20 21:15:19;;;;;;;7.55;4.10;;;;;;;;;;10587006;22;20018;-94
2023/12/20 21:19:32;;;;;;;6.55;3.88;;;;;;;;;;10580649;22;20112;-90
2023/12/20 21:23:50;;;;;;;7.63;3.60;;;;;;;;;;10587861;22;20450;-93
2023/12/20 21:28:11;;;;;;;10.93;4.78;;;;;;;;;;10558361;22;20015;-90
2023/12/20 21:32:34;;;;;;;10.40;5.15;;;;;;;;;;10545874;22;20455;-92
2023/12/20 21:36:44;;;;;;;9.68;4.63;;;;;;;;;;10579711;22;20036;-94
2023/12/20 21:45:59;;;;;;;13.30;4.75;;;;;;;;;;10576999;22;20029;-93
2023/12/20 21:50:46;;;;;;;8.98;4.07;;;;;;;;;;10575205;22;20025;-96
2023/12/20 21:55:16;;;;;;;9.55;4.25;;;;;;;;;;10594960;22;20015;-95
2023/12/20 22:03:56;;;;;;;9.43;4.15;;;;;;;;;;10591889;22;20014;-91
2023/12/20 22:33:53;;;;;;;5.43;3.58;;;;;;;;;;10261963;23;20032;-92
2023/12/20 22:38:04;;;;;;;10.77;3.50;;;;;;;;;;10251643;23;20449;-95
2023/12/20 22:42:40;;;;;;;7.93;3.60;;;;;;;;;;10245346;23;20095;-94
2023/12/20 22:46:55;;;;;;;5.32;2.78;;;;;;;;;;10246486;23;20524;-95
2023/12/20 22:50:59;;;;;;;11.20;3.17;;;;;;;;;;10241214;23;20032;-92
2023/12/20 22:55:02;;;;;;;9.07;2.97;;;;;;;;;;10240589;23;20028;-93
2023/12/20 22:59:05;;;;;;;8.02;3.25;;;;;;;;;;10301563;22;20027;-94
2023/12/20 23:03:08;;;;;;;8.98;3.63;;;;;;;;;;10366704;22;20054;-93
2023/12/20 23:07:19;;;;;;;13.25;3.25;;;;;;;;;;10392763;22;20019;-93
2023/12/20 23:11:22;;;;;;;6.47;2.80;;;;;;;;;;10408162;22;20077;-93
2023/12/20 23:15:51;;;;;;;7.70;3.17;;;;;;;;;;10371156;22;20023;-89
2023/12/20 23:26:15;;;;;;;8.43;3.28;;;;;;;;;;10377347;23;20038;-89
2023/12/20 23:30:51;;;;;;;6.70;3.20;;;;;;;;;;10375957;23;20047;-88
2023/12/20 23:35:05;;;;;;;7.13;3.47;;;;;;;;;;10388316;23;20028;-93
2023/12/20 23:39:14;;;;;;;9.43;3.10;;;;;;;;;;10439357;22;20026;-90
2023/12/20 23:43:22;;;;;;;12.38;3.80;;;;;;;;;;10534920;22;20083;-95
2023/12/20 23:47:44;;;;;;;7.80;3.70;;;;;;;;;;10549718;22;20054;-94
2023/12/20 23:51:47;;;;;;;9.30;4.05;;;;;;;;;;10549823;22;20057;-94
2023/12/20 23:55:50;;;;;;;8.85;3.42;;;;;;;;;;10550205;22;20062;-93
2023/12/20 23:59:53;;;;;;;7.35;3.83;;;;;;;;;;10523153;22;20163;-93
